createdAt,value
2022-11-12T07:34:24.471Z,6.75
2022-11-12T07:37:11.476Z,7.07
2022-11-12T07:39:57.860Z,6.70
2022-11-12T07:42:44.549Z,6.07
2022-11-12T07:45:30.716Z,5.88
2022-11-12T07:48:16.863Z,6.63
2022-11-12T07:51:14.459Z,6.47
2022-11-12T07:54:00.945Z,6.57
2022-11-12T07:56:47.583Z,7.35
2022-11-12T07:59:33.997Z,6.32
2022-11-12T08:02:20.190Z,7.03
2022-11-12T08:05:12.982Z,5.20
2022-11-12T08:08:02.143Z,5.70
2022-11-12T08:10:49.195Z,5.63
2022-11-12T08:13:35.305Z,5.55
2022-11-12T08:16:21.601Z,5.32
2022-11-12T08:19:08.152Z,4.60
2022-11-12T08:21:54.337Z,5.75
2022-11-12T08:24:40.456Z,5.00
2022-11-12T08:27:26.584Z,5.97
2022-11-12T08:30:13.416Z,6.05
2022-11-12T08:33:00.995Z,5.95
2022-11-12T08:35:47.413Z,6.30
2022-11-12T08:38:33.764Z,5.97
2022-11-12T08:41:20.461Z,4.25
2022-11-12T08:44:08.747Z,4.50
2022-11-12T08:46:55.693Z,3.78
2022-11-12T08:49:46.790Z,3.45
2022-11-12T08:52:34.485Z,3.05
2022-11-12T08:55:20.888Z,2.85
2022-11-12T08:58:07.282Z,2.70
2022-11-12T09:00:54.122Z,2.97
2022-11-12T09:03:40.833Z,3.20
2022-11-12T09:06:27.238Z,2.78
2022-11-12T09:09:13.838Z,3.55
2022-11-12T09:12:04.266Z,3.00
2022-11-12T09:14:59.634Z,3.63
2022-11-12T09:17:57.611Z,3.33
2022-11-12T09:20:44.154Z,3.10
2022-11-12T09:23:30.421Z,4.05
2022-11-12T09:26:16.802Z,3.40
2022-11-12T09:29:03.543Z,3.40
2022-11-12T09:31:50.662Z,3.80
2022-11-12T09:34:36.999Z,3.58
2022-11-12T09:37:23.486Z,3.45
2022-11-12T09:40:15.575Z,3.50
2022-11-12T09:43:09.015Z,3.78
2022-11-12T09:46:13.857Z,2.90
2022-11-12T09:49:24.883Z,4.18
2022-11-12T09:52:23.555Z,3.55
2022-11-12T09:55:18.138Z,4.03
2022-11-12T09:58:14.656Z,3.53
2022-11-12T10:01:15.298Z,3.40
2022-11-12T10:04:23.609Z,2.92
2022-11-12T10:07:17.154Z,3.55
2022-11-12T10:10:10.863Z,3.83
2022-11-12T10:13:12.629Z,3.92
2022-11-12T10:16:23.751Z,3.95
2022-11-12T10:19:16.189Z,3.83
2022-11-12T10:22:06.120Z,4.00
2022-11-12T10:24:52.441Z,4.57
2022-11-12T10:27:41.755Z,4.60
2022-11-12T10:30:28.379Z,5.03
2022-11-12T10:33:15.243Z,4.28
2022-11-12T10:36:21.715Z,4.30
2022-11-12T10:39:08.070Z,3.28
2022-11-12T10:42:09.063Z,3.95
2022-11-12T10:44:55.286Z,4.47
2022-11-12T10:47:44.399Z,3.83
2022-11-12T10:50:41.785Z,3.67
2022-11-12T10:53:33.197Z,3.80
2022-11-12T10:56:30.195Z,3.03
2022-11-12T10:59:20.849Z,4.00
2022-11-12T11:02:18.397Z,3.60
2022-11-12T11:05:31.341Z,3.40
2022-11-12T11:08:35.742Z,4.80
2022-11-12T11:11:22.538Z,4.43
2022-11-12T11:14:34.758Z,4.40
2022-11-12T11:17:21.473Z,3.13
2022-11-12T11:20:23.176Z,3.58
2022-11-12T11:23:51.462Z,3.20
2022-11-12T11:26:55.890Z,3.75
2022-11-12T11:29:45.155Z,3.33
2022-11-12T11:33:01.061Z,3.80
2022-11-12T11:35:56.652Z,3.80
2022-11-12T11:39:03.297Z,3.25
2022-11-12T11:42:11.078Z,3.60
2022-11-12T11:45:16.245Z,2.22
2022-11-12T11:48:20.464Z,3.10
2022-11-12T11:51:52.233Z,3.50
2022-11-12T11:54:38.549Z,3.03
2022-11-12T11:57:53.309Z,2.97
2022-11-12T12:01:08.926Z,3.63
2022-11-12T12:04:15.445Z,3.38
2022-11-12T12:07:20.345Z,3.20
2022-11-12T12:11:06.417Z,4.00
2022-11-12T12:14:26.021Z,4.00
2022-11-12T12:17:31.755Z,3.75
2022-11-12T12:20:35.885Z,3.45
2022-11-12T12:24:01.891Z,3.05
2022-11-12T12:26:53.861Z,3.35
2022-11-12T12:32:55.277Z,3.00
2022-11-12T12:36:08.767Z,3.20
2022-11-12T12:39:04.580Z,3.17
2022-11-12T12:42:05.357Z,2.72
2022-11-12T12:45:00.706Z,4.00
2022-11-12T12:47:47.789Z,4.20
2022-11-12T12:50:34.210Z,5.13
2022-11-12T12:53:29.781Z,5.57
2022-11-12T12:56:22.270Z,5.13
2022-11-12T12:59:16.653Z,5.30
2022-11-12T13:02:03.380Z,4.90
2022-11-12T13:04:49.888Z,4.88
2022-11-12T13:07:42.101Z,5.40
2022-11-12T13:10:49.071Z,4.95
2022-11-12T13:13:36.764Z,4.07
2022-11-12T13:16:52.137Z,4.88
2022-11-12T13:19:38.205Z,4.45
2022-11-12T13:22:24.423Z,4.85
2022-11-12T13:25:13.630Z,4.65
2022-11-12T13:28:03.128Z,4.47
2022-11-12T13:30:49.334Z,4.18
2022-11-12T13:33:35.558Z,4.55
2022-11-12T13:36:29.176Z,5.25
2022-11-12T13:39:16.504Z,3.42
2022-11-12T13:42:27.942Z,3.80
2022-11-12T13:45:14.601Z,3.28
2022-11-12T13:48:01.209Z,3.72
2022-11-12T13:50:50.686Z,3.83
2022-11-12T13:53:37.073Z,4.18
2022-11-12T13:56:34.459Z,4.47
2022-11-12T13:59:22.341Z,4.43
2022-11-12T14:02:23.310Z,4.22
2022-11-12T14:05:20.671Z,3.73
2022-11-12T14:08:22.360Z,3.03
2022-11-12T14:11:46.060Z,3.15
2022-11-12T14:14:50.926Z,4.28
2022-11-12T14:17:43.741Z,4.07
2022-11-12T14:20:37.133Z,3.65
2022-11-12T14:23:25.385Z,3.92
2022-11-12T14:26:13.942Z,4.53
2022-11-12T14:29:02.933Z,4.00
2022-11-12T14:31:49.298Z,2.88
2022-11-12T14:34:35.828Z,4.38
2022-11-12T14:38:14.776Z,3.97
2022-11-12T14:41:08.813Z,3.80
2022-11-12T14:44:11.454Z,3.63
2022-11-12T14:46:59.091Z,4.57
2022-11-12T14:49:47.134Z,3.35
2022-11-12T14:52:36.345Z,3.95
2022-11-12T14:55:28.416Z,3.45
2022-11-12T14:58:15.265Z,3.97
2022-11-12T15:02:08.949Z,3.67
2022-11-12T15:04:42.084Z,3.97
2022-11-12T15:07:33.126Z,3.88
2022-11-12T15:10:45.409Z,3.45
2022-11-12T15:16:26.082Z,3.58
2022-11-12T15:19:25.163Z,3.75
2022-11-12T15:22:19.976Z,4.03
2022-11-12T15:25:26.183Z,7.05
2022-11-12T15:28:30.883Z,4.93
2022-11-12T15:31:18.712Z,3.63
2022-11-12T15:34:27.746Z,4.18
2022-11-12T15:37:20.114Z,4.15
2022-11-12T15:40:12.871Z,5.47
2022-11-12T15:42:59.181Z,4.18
2022-11-12T15:45:48.696Z,4.20
2022-11-12T15:48:35.168Z,4.68
2022-11-12T15:51:22.278Z,4.75
